createdAt,value
2023-04-14T00:00:03.827Z,96813.22
2023-04-14T00:02:40.174Z,96799.16
2023-04-14T00:05:08.735Z,96812.22
2023-04-14T00:07:36.443Z,96807.81
2023-04-14T00:10:04.444Z,96805.19
2023-04-14T00:12:31.960Z,96798.03
2023-04-14T00:14:59.508Z,96793.66
2023-04-14T00:17:27.098Z,96787.56
2023-04-14T00:19:54.623Z,96787.47
2023-04-14T00:22:22.740Z,96786.91
2023-04-14T00:24:50.795Z,96790.22
2023-04-14T00:27:18.305Z,96788.72
2023-04-14T00:29:45.855Z,96791.09
2023-04-14T00:32:13.548Z,96789.59
2023-04-14T00:34:41.026Z,96802.72
2023-04-14T00:37:08.557Z,96802.09
2023-04-14T00:39:36.273Z,96799.66
2023-04-14T00:42:04.650Z,96799.66
2023-04-14T00:44:32.160Z,96791.34
2023-04-14T00:47:01.693Z,96798.53
2023-04-14T00:49:29.403Z,96791.97
2023-04-14T00:51:57.734Z,96792.97
2023-04-14T00:54:27.995Z,96798.66
2023-04-14T00:56:57.868Z,96797.47
2023-04-14T00:59:25.748Z,96801.44
2023-04-14T01:01:54.780Z,96799.25
2023-04-14T01:04:23.048Z,96802.91
2023-04-14T01:06:50.712Z,96807.38
2023-04-14T01:09:18.214Z,96804.09
2023-04-14T01:12:20.253Z,96805.56
2023-04-14T01:15:10.820Z,96810.66
2023-04-14T01:17:53.043Z,96816.16
2023-04-14T01:20:36.232Z,96814.38
2023-04-14T01:23:13.096Z,96816.88
2023-04-14T01:26:13.942Z,96821.72
2023-04-14T01:29:29.647Z,96822.41
2023-04-14T01:32:10.183Z,96825.69
2023-04-14T01:34:53.944Z,96825.44
2023-04-14T01:37:47.230Z,96828.63
2023-04-14T01:40:18.368Z,96826.16
2023-04-14T01:43:04.790Z,96826.97
2023-04-14T01:45:51.342Z,96834.06
2023-04-14T01:48:19.588Z,96835.66
2023-04-14T01:50:48.633Z,96831.28
2023-04-14T01:53:18.149Z,96831.59
2023-04-14T01:55:49.068Z,96833.91
2023-04-14T01:58:19.113Z,96835.56
2023-04-14T02:00:47.695Z,96830.72
2023-04-14T02:03:21.639Z,96830.56
2023-04-14T02:05:51.283Z,96835.88
2023-04-14T02:08:20.170Z,96836.84
2023-04-14T02:10:52.112Z,96835.50
2023-04-14T02:13:21.446Z,96845.41
2023-04-14T02:15:51.140Z,96842.59
2023-04-14T02:18:22.972Z,96841.28
2023-04-14T02:20:52.731Z,96844.25
2023-04-14T02:23:20.508Z,96851.75
2023-04-14T02:26:04.775Z,96840.78
2023-04-14T02:28:34.215Z,96847.19
2023-04-14T02:31:08.736Z,96844.03
2023-04-14T02:33:39.351Z,96853.00
2023-04-14T02:36:21.009Z,96846.22
2023-04-14T02:39:00.798Z,96847.69
2023-04-14T02:41:32.935Z,96850.66
2023-04-14T02:44:24.546Z,96849.28
2023-04-14T02:47:07.345Z,96854.28
2023-04-14T02:49:43.253Z,96859.38
2023-04-14T02:52:15.337Z,96857.91
2023-04-14T02:54:46.141Z,96862.75
2023-04-14T02:57:15.623Z,96864.28
2023-04-14T02:59:47.612Z,96865.63
2023-04-14T03:02:17.890Z,96870.47
2023-04-14T03:04:51.306Z,96879.00
2023-04-14T03:07:29.274Z,96869.06
2023-04-14T03:09:58.063Z,96870.03
2023-04-14T03:12:28.063Z,96868.56
2023-04-14T03:14:58.069Z,96866.78
2023-04-14T03:17:27.402Z,96867.31
2023-04-14T03:19:56.383Z,96867.81
2023-04-14T03:22:28.075Z,96865.03
2023-04-14T03:24:58.749Z,96861.56
2023-04-14T03:27:31.464Z,96867.56
2023-04-14T03:30:06.812Z,96856.63
2023-04-14T03:32:41.916Z,96862.13
2023-04-14T03:35:14.849Z,96865.00
2023-04-14T03:37:44.578Z,96870.16
2023-04-14T03:40:14.480Z,96866.53
2023-04-14T03:42:45.901Z,96868.69
2023-04-14T03:45:18.262Z,96858.41
2023-04-14T03:47:46.710Z,96863.88
2023-04-14T03:50:16.340Z,96855.09
2023-04-14T03:52:49.754Z,96858.75
2023-04-14T03:55:19.433Z,96855.59
2023-04-14T03:57:50.174Z,96858.09
2023-04-14T04:00:20.039Z,96861.28
2023-04-14T04:02:49.970Z,96860.25
2023-04-14T04:05:18.353Z,96855.97
2023-04-14T04:07:46.640Z,96865.44
2023-04-14T04:10:16.270Z,96868.25
2023-04-14T04:12:46.656Z,96866.06
2023-04-14T04:15:14.750Z,96860.28
2023-04-14T04:17:47.211Z,96865.75
2023-04-14T04:20:19.261Z,96868.56
2023-04-14T04:22:51.903Z,96871.06
2023-04-14T04:25:20.566Z,96873.88
2023-04-14T04:27:57.260Z,96868.41
2023-04-14T04:30:27.639Z,96867.88
2023-04-14T04:32:55.542Z,96862.44
2023-04-14T04:35:24.629Z,96866.56
2023-04-14T04:37:53.464Z,96860.59
2023-04-14T04:40:21.113Z,96861.91
2023-04-14T04:42:50.790Z,96867.72
2023-04-14T04:45:49.960Z,96856.94
2023-04-14T04:48:17.498Z,96863.41
2023-04-14T04:50:45.509Z,96864.91
2023-04-14T04:53:13.869Z,96860.56
2023-04-14T04:55:42.551Z,96863.41
2023-04-14T04:58:10.447Z,96862.41
2023-04-14T05:00:37.979Z,96865.53
2023-04-14T05:03:05.654Z,96865.88
2023-04-14T05:05:37.135Z,96874.66
2023-04-14T05:08:04.961Z,96876.84
2023-04-14T05:10:36.563Z,96876.97
2023-04-14T05:13:04.197Z,96874.50
2023-04-14T05:15:31.732Z,96876.63
2023-04-14T05:17:59.304Z,96879.94
2023-04-14T05:20:26.861Z,96888.56
2023-04-14T05:22:54.344Z,96885.72
2023-04-14T05:25:22.108Z,96888.22
2023-04-14T05:27:49.580Z,96886.56
2023-04-14T05:30:17.074Z,96882.59
2023-04-14T05:32:44.625Z,96885.41
2023-04-14T05:35:12.158Z,96885.25
2023-04-14T05:37:39.668Z,96890.25
2023-04-14T05:40:08.115Z,96885.91
2023-04-14T05:42:35.680Z,96892.75
2023-04-14T05:45:04.123Z,96887.09
2023-04-14T05:47:31.937Z,96897.06
2023-04-14T05:49:59.866Z,96915.09
2023-04-14T05:52:27.330Z,96910.97
2023-04-14T05:54:55.182Z,96913.47
2023-04-14T05:57:22.745Z,96915.00
2023-04-14T05:59:50.222Z,96922.13
2023-04-14T06:02:17.825Z,96915.66
2023-04-14T06:04:46.425Z,96910.84
2023-04-14T06:07:13.954Z,96924.59
2023-04-14T06:09:42.670Z,96918.28
2023-04-14T06:12:10.317Z,96920.59
2023-04-14T06:14:37.787Z,96920.25
2023-04-14T06:17:05.284Z,96925.03
2023-04-14T06:19:32.794Z,96922.22
2023-04-14T06:22:00.342Z,96922.72
2023-04-14T06:24:27.932Z,96915.22
2023-04-14T06:26:56.139Z,96918.91
2023-04-14T06:29:23.623Z,96915.34
2023-04-14T06:31:51.861Z,96908.72
2023-04-14T06:34:19.405Z,96924.13
2023-04-14T06:36:46.879Z,96926.31
2023-04-14T06:39:14.370Z,96919.00
2023-04-14T06:41:41.944Z,96921.97
2023-04-14T06:44:13.386Z,96914.69
2023-04-14T06:46:40.861Z,96917.34
2023-04-14T06:49:08.464Z,96919.44
2023-04-14T06:51:35.940Z,96921.28
2023-04-14T06:54:03.934Z,96925.13
2023-04-14T06:56:31.536Z,96927.16
2023-04-14T06:59:02.574Z,96912.75
2023-04-14T07:01:30.084Z,96912.22
2023-04-14T07:03:57.660Z,96908.78
2023-04-14T07:06:26.369Z,96915.78
2023-04-14T07:08:55.889Z,96912.94
2023-04-14T07:11:23.405Z,96906.06
2023-04-14T07:13:50.908Z,96902.38
2023-04-14T07:16:18.429Z,96901.06
2023-04-14T07:18:45.911Z,96896.56
2023-04-14T07:21:13.398Z,96905.38
2023-04-14T07:23:40.968Z,96896.97
2023-04-14T07:26:08.460Z,96902.50
2023-04-14T07:28:35.932Z,96891.44
2023-04-14T07:31:10.308Z,96895.75
2023-04-14T07:33:37.851Z,96889.13
2023-04-14T07:36:05.454Z,96881.78
2023-04-14T07:38:33.399Z,96885.75
2023-04-14T07:41:05.844Z,96888.41
2023-04-14T07:43:36.772Z,96882.88
2023-04-14T07:46:06.877Z,96884.47
2023-04-14T07:48:38.416Z,96886.19
2023-04-14T07:51:06.296Z,96877.53
2023-04-14T07:53:34.462Z,96878.69
2023-04-14T07:56:02.205Z,96881.41
2023-04-14T07:58:30.041Z,96877.44
2023-04-14T08:00:58.205Z,96880.31
2023-04-14T08:03:26.105Z,96887.66
2023-04-14T08:05:53.724Z,96880.41
2023-04-14T08:08:21.204Z,96876.31
2023-04-14T08:10:48.698Z,96879.16
2023-04-14T08:13:16.204Z,96884.69
2023-04-14T08:15:43.674Z,96887.66
2023-04-14T08:18:11.172Z,96895.00
2023-04-14T08:20:38.713Z,96897.31
2023-04-14T08:23:06.170Z,96894.81
2023-04-14T08:25:33.854Z,96888.84
2023-04-14T08:28:01.421Z,96894.91
2023-04-14T08:30:29.282Z,96898.06
2023-04-14T08:32:58.903Z,96897.16
2023-04-14T08:35:36.973Z,96891.47
2023-04-14T08:38:08.925Z,96896.25
2023-04-14T08:40:47.633Z,96890.47
2023-04-14T08:43:15.676Z,96890.56
2023-04-14T08:45:44.072Z,96891.75
2023-04-14T08:48:14.668Z,96899.59
2023-04-14T08:51:02.258Z,96897.38
2023-04-14T08:53:32.070Z,96895.97
2023-04-14T08:56:04.321Z,96895.91
2023-04-14T08:58:32.292Z,96899.94
2023-04-14T09:01:00.165Z,96887.53
2023-04-14T09:03:28.191Z,96887.81
2023-04-14T09:05:56.547Z,96891.94
2023-04-14T09:08:24.401Z,96899.94
2023-04-14T09:10:51.953Z,96883.72
2023-04-14T09:13:22.755Z,96889.03
2023-04-14T09:15:50.881Z,96888.69
2023-04-14T09:18:18.517Z,96882.81
2023-04-14T09:21:28.716Z,96885.56
2023-04-14T09:23:41.614Z,96881.69
2023-04-14T09:26:10.388Z,96895.00
2023-04-14T09:28:38.124Z,96888.03
2023-04-14T09:31:06.079Z,96896.91
2023-04-14T09:33:38.931Z,96901.53
2023-04-14T09:36:06.576Z,96897.41
2023-04-14T09:38:39.147Z,96890.78
2023-04-14T09:41:07.207Z,96886.72
2023-04-14T09:43:36.590Z,96890.06
2023-04-14T09:46:10.784Z,96894.94
2023-04-14T09:48:56.279Z,96886.44
2023-04-14T09:51:28.736Z,96881.25
2023-04-14T09:54:04.798Z,96887.84
2023-04-14T09:56:33.042Z,96889.44
2023-04-14T09:59:02.446Z,96886.66
2023-04-14T10:01:33.877Z,96884.22
2023-04-14T10:04:02.776Z,96892.19
2023-04-14T10:06:32.120Z,96883.25
2023-04-14T10:09:01.623Z,96882.16
2023-04-14T10:11:32.803Z,96874.25
2023-04-14T10:14:06.193Z,96867.75
2023-04-14T10:16:34.627Z,96855.44
2023-04-14T10:19:03.759Z,96867.19
2023-04-14T10:21:32.334Z,96858.66
2023-04-14T10:24:01.127Z,96860.09
2023-04-14T10:26:29.887Z,96849.75
2023-04-14T10:28:57.503Z,96848.16
2023-04-14T10:31:42.448Z,96851.63
2023-04-14T10:34:15.671Z,96847.59
2023-04-14T10:36:44.196Z,96847.41
2023-04-14T10:39:12.749Z,96844.97
2023-04-14T10:41:48.406Z,96839.03
2023-04-14T10:44:33.024Z,96837.22
2023-04-14T10:47:04.679Z,96834.41
2023-04-14T10:49:41.475Z,96832.97
2023-04-14T10:52:14.784Z,96825.19
2023-04-14T10:54:51.939Z,96822.31
2023-04-14T10:57:23.794Z,96826.84
2023-04-14T10:59:55.817Z,96823.56
2023-04-14T11:02:31.226Z,96816.97
2023-04-14T11:05:08.417Z,96814.31
2023-04-14T11:07:45.722Z,96812.06
2023-04-14T11:10:19.447Z,96807.75
2023-04-14T11:12:54.209Z,96804.06
2023-04-14T11:15:21.858Z,96807.53
2023-04-14T11:17:49.933Z,96794.75
2023-04-14T11:20:22.823Z,96789.84
2023-04-14T11:22:52.747Z,96788.22
2023-04-14T11:25:24.581Z,96794.38
2023-04-14T11:27:52.770Z,96786.56
2023-04-14T11:30:21.416Z,96787.38
2023-04-14T11:32:53.655Z,96790.88
2023-04-14T11:35:24.869Z,96789.44
2023-04-14T11:37:57.213Z,96783.88
2023-04-14T11:40:27.352Z,96777.94
2023-04-14T11:42:58.427Z,96776.88
2023-04-14T11:45:30.291Z,96768.66
2023-04-14T11:48:06.902Z,96767.19
2023-04-14T11:50:38.993Z,96773.59
2023-04-14T11:53:12.007Z,96767.81
2023-04-14T11:55:48.152Z,96769.88
2023-04-14T11:58:24.855Z,96759.59
2023-04-14T12:00:56.027Z,96757.34
2023-04-14T12:03:29.258Z,96756.09
2023-04-14T12:06:01.542Z,96766.38
2023-04-14T12:08:33.368Z,96758.34
2023-04-14T12:11:17.378Z,96763.69
2023-04-14T12:13:47.166Z,96761.00
2023-04-14T12:16:16.881Z,96755.03
2023-04-14T12:18:44.829Z,96747.44
2023-04-14T12:21:18.834Z,96743.91
2023-04-14T12:23:50.914Z,96741.06
2023-04-14T12:26:20.070Z,96745.78
2023-04-14T12:28:57.028Z,96734.81
2023-04-14T12:31:31.972Z,96723.28
2023-04-14T12:34:03.514Z,96718.28
2023-04-14T12:36:48.119Z,96712.06
2023-04-14T12:39:17.069Z,96717.16
2023-04-14T12:41:45.093Z,96709.22
2023-04-14T12:44:16.151Z,96700.91
2023-04-14T12:46:52.611Z,96694.84
2023-04-14T12:49:36.275Z,96698.72
2023-04-14T12:52:05.266Z,96694.06
2023-04-14T12:54:46.742Z,96691.97
2023-04-14T12:57:14.219Z,96686.50
2023-04-14T12:59:41.761Z,96685.63
2023-04-14T13:02:10.088Z,96678.13
2023-04-14T13:04:37.728Z,96677.44
2023-04-14T13:07:05.203Z,96680.09
2023-04-14T13:09:32.780Z,96683.47
2023-04-14T13:12:00.260Z,96681.13
2023-04-14T13:14:27.762Z,96670.25
2023-04-14T13:16:56.225Z,96673.84
2023-04-14T13:19:23.942Z,96669.66
2023-04-14T13:21:51.429Z,96664.59
2023-04-14T13:24:18.945Z,96667.81
2023-04-14T13:26:46.442Z,96664.38
2023-04-14T13:29:14.129Z,96656.59
2023-04-14T13:31:41.673Z,96641.00
2023-04-14T13:34:10.696Z,96649.09
2023-04-14T13:36:38.577Z,96636.50
2023-04-14T13:39:06.267Z,96629.38
2023-04-14T13:41:33.812Z,96628.03
2023-04-14T13:44:01.297Z,96624.44
2023-04-14T13:46:28.872Z,96629.94
2023-04-14T13:48:56.523Z,96614.38
2023-04-14T13:51:24.036Z,96608.00
2023-04-14T13:53:53.157Z,96610.56
2023-04-14T13:56:22.609Z,96606.91
2023-04-14T13:58:50.317Z,96609.81
2023-04-14T14:01:18.162Z,96613.94
2023-04-14T14:03:46.757Z,96604.72
2023-04-14T14:06:14.448Z,96603.44
2023-04-14T14:08:42.398Z,96604.38
2023-04-14T14:11:10.648Z,96610.31
2023-04-14T14:13:39.638Z,96604.50
2023-04-14T14:16:10.210Z,96598.72
2023-04-14T14:18:38.418Z,96594.34
2023-04-14T14:21:06.576Z,96592.84
2023-04-14T14:23:34.144Z,96584.19
2023-04-14T14:26:01.600Z,96592.97
2023-04-14T14:28:29.118Z,96588.69
2023-04-14T14:30:56.647Z,96581.19
2023-04-14T14:33:24.157Z,96576.41
2023-04-14T14:35:52.213Z,96575.84
2023-04-14T14:38:19.685Z,96582.50
2023-04-14T14:40:47.216Z,96586.53
2023-04-14T14:43:14.682Z,96573.44
2023-04-14T14:45:42.180Z,96581.06
2023-04-14T14:48:11.586Z,96582.44
2023-04-14T14:50:39.154Z,96587.44
2023-04-14T14:53:07.041Z,96577.00
2023-04-14T14:55:35.111Z,96580.53
2023-04-14T14:58:03.844Z,96570.63
2023-04-14T15:00:31.369Z,96573.78
2023-04-14T15:02:59.007Z,96581.69
2023-04-14T15:05:27.499Z,96577.00
2023-04-14T15:07:55.000Z,96576.53
2023-04-14T15:10:22.512Z,96587.47
2023-04-14T15:12:50.017Z,96586.94
2023-04-14T15:15:19.723Z,96583.81
2023-04-14T15:17:47.315Z,96580.78
2023-04-14T15:20:15.397Z,96582.63
2023-04-14T15:22:42.975Z,96582.53
2023-04-14T15:25:10.591Z,96587.03
2023-04-14T15:27:38.060Z,96576.22
2023-04-14T15:30:06.932Z,96580.88
2023-04-14T15:32:34.536Z,96577.41
2023-04-14T15:35:02.112Z,96583.88
2023-04-14T15:37:29.658Z,96578.53
2023-04-14T15:39:57.284Z,96581.41
2023-04-14T15:42:24.863Z,96575.13
2023-04-14T15:44:52.335Z,96576.53
2023-04-14T15:47:19.878Z,96569.19
2023-04-14T15:49:48.498Z,96578.06
2023-04-14T15:52:17.636Z,96576.44
2023-04-14T15:54:45.369Z,96574.06
2023-04-14T15:57:12.958Z,96572.28
2023-04-14T15:59:40.876Z,96574.69
2023-04-14T16:02:08.496Z,96574.28
2023-04-14T16:04:36.698Z,96567.91
2023-04-14T16:07:04.428Z,96575.78
2023-04-14T16:09:31.902Z,96575.88
2023-04-14T16:11:59.420Z,96563.09
2023-04-14T16:14:35.304Z,96575.59
2023-04-14T16:17:02.847Z,96578.19
2023-04-14T16:19:30.356Z,96572.97
2023-04-14T16:21:57.851Z,96570.91
2023-04-14T16:24:25.446Z,96582.56
2023-04-14T16:26:53.025Z,96576.34
2023-04-14T16:29:20.573Z,96573.56
2023-04-14T16:31:48.213Z,96573.69
2023-04-14T16:34:18.144Z,96575.44
2023-04-14T16:36:46.747Z,96578.31
2023-04-14T16:39:14.686Z,96577.81
2023-04-14T16:41:42.293Z,96567.66
2023-04-14T16:44:09.811Z,96575.91
2023-04-14T16:46:37.318Z,96579.41
2023-04-14T16:49:06.862Z,96577.25
2023-04-14T16:51:34.491Z,96582.41
2023-04-14T16:54:02.374Z,96579.59
2023-04-14T16:56:30.438Z,96576.63
2023-04-14T16:58:58.172Z,96579.66
2023-04-14T17:01:26.545Z,96572.72
2023-04-14T17:03:54.279Z,96578.13
2023-04-14T17:06:21.922Z,96568.06
2023-04-14T17:08:49.392Z,96571.78
2023-04-14T17:11:16.883Z,96574.25
2023-04-14T17:13:44.401Z,96573.22
2023-04-14T17:16:12.067Z,96571.78
2023-04-14T17:18:39.740Z,96581.72
2023-04-14T17:21:07.343Z,96588.53
2023-04-14T17:23:39.138Z,96579.13
2023-04-14T17:26:06.800Z,96579.66
2023-04-14T17:28:35.570Z,96584.06
2023-04-14T17:31:09.661Z,96582.03
2023-04-14T17:33:37.253Z,96587.88
2023-04-14T17:36:05.195Z,96593.56
2023-04-14T17:38:34.547Z,96591.38
2023-04-14T17:41:03.148Z,96590.41
2023-04-14T17:43:30.987Z,96589.63
2023-04-14T17:45:58.532Z,96587.16
2023-04-14T17:48:27.556Z,96593.59
2023-04-14T17:50:55.165Z,96586.41
2023-04-14T17:53:22.695Z,96579.84
2023-04-14T17:55:51.348Z,96584.81
2023-04-14T17:58:20.146Z,96580.34
2023-04-14T18:00:47.696Z,96586.00
2023-04-14T18:03:16.444Z,96588.31
2023-04-14T18:05:44.048Z,96583.56
2023-04-14T18:08:11.576Z,96580.13
2023-04-14T18:10:39.153Z,96583.47
2023-04-14T18:13:06.666Z,96594.03
2023-04-14T18:15:34.137Z,96591.81
2023-04-14T18:18:01.776Z,96588.53
2023-04-14T18:20:29.325Z,96589.81
2023-04-14T18:23:01.884Z,96592.50
2023-04-14T18:28:03.961Z,96604.31
2023-04-14T18:30:31.840Z,96607.28
2023-04-14T18:33:00.750Z,96605.06
2023-04-14T18:35:29.075Z,96610.88
2023-04-14T18:37:56.554Z,96616.50
2023-04-14T18:40:25.837Z,96616.75
2023-04-14T18:42:55.146Z,96621.09
2023-04-14T18:45:22.744Z,96618.63
2023-04-14T18:47:50.680Z,96623.41
2023-04-14T18:50:20.207Z,96626.06
2023-04-14T18:52:47.804Z,96624.44
2023-04-14T18:55:15.451Z,96626.34
2023-04-14T18:57:42.935Z,96627.19
2023-04-14T19:00:13.281Z,96634.41
2023-04-14T19:02:41.209Z,96636.88
2023-04-14T19:05:09.913Z,96634.41
2023-04-14T19:07:37.596Z,96639.78
2023-04-14T19:10:06.590Z,96633.19
2023-04-14T19:12:34.104Z,96639.56
2023-04-14T19:15:02.768Z,96638.75
2023-04-14T19:17:35.789Z,96644.13
2023-04-14T19:20:04.460Z,96644.31
2023-04-14T19:22:31.958Z,96644.31
2023-04-14T19:24:59.504Z,96652.53
2023-04-14T19:27:26.993Z,96660.56
2023-04-14T19:29:54.620Z,96656.03
2023-04-14T19:32:22.178Z,96653.34
2023-04-14T19:34:49.705Z,96657.69
2023-04-14T19:37:17.221Z,96654.41
2023-04-14T19:39:45.209Z,96654.59
2023-04-14T19:42:12.724Z,96664.06
2023-04-14T19:44:40.327Z,96656.44
2023-04-14T19:47:07.934Z,96650.91
2023-04-14T19:49:36.102Z,96654.81
2023-04-14T19:52:04.751Z,96651.94
2023-04-14T19:54:32.286Z,96643.69
2023-04-14T19:57:00.297Z,96648.81
2023-04-14T19:59:29.480Z,96644.31
2023-04-14T20:01:56.965Z,96644.72
2023-04-14T20:04:24.682Z,96652.53
2023-04-14T20:06:53.176Z,96652.31
2023-04-14T20:09:20.717Z,96642.22
2023-04-14T20:11:48.248Z,96640.56
2023-04-14T20:14:16.192Z,96642.78
2023-04-14T20:16:44.050Z,96642.16
2023-04-14T20:19:11.774Z,96631.88
2023-04-14T20:21:39.573Z,96635.78
2023-04-14T20:24:07.119Z,96639.06
2023-04-14T20:26:35.023Z,96634.31
2023-04-14T20:29:02.810Z,96643.75
2023-04-14T20:31:30.705Z,96633.88
2023-04-14T20:33:58.368Z,96632.66
2023-04-14T20:36:26.166Z,96633.03
2023-04-14T20:38:53.702Z,96627.28
2023-04-14T20:41:21.560Z,96622.09
2023-04-14T20:43:49.061Z,96622.72
2023-04-14T20:46:16.857Z,96623.34
2023-04-14T20:48:44.573Z,96624.72
2023-04-14T20:51:12.165Z,96625.97
2023-04-14T20:53:39.711Z,96633.34
2023-04-14T20:56:07.297Z,96626.75
2023-04-14T20:58:34.906Z,96625.09
2023-04-14T21:01:02.911Z,96633.72
2023-04-14T21:03:34.306Z,96631.41
2023-04-14T21:06:02.080Z,96633.47
2023-04-14T21:08:29.841Z,96628.53
2023-04-14T21:11:15.319Z,96635.69
2023-04-14T21:15:27.189Z,96632.78
2023-04-14T21:16:32.244Z,96636.84
2023-04-14T21:19:02.280Z,96638.09
2023-04-14T21:21:30.368Z,96637.06
2023-04-14T21:23:57.970Z,96630.06
2023-04-14T21:26:26.818Z,96631.31
2023-04-14T21:28:54.428Z,96641.56
2023-04-14T21:31:21.911Z,96636.22
2023-04-14T21:33:49.467Z,96635.78
2023-04-14T21:36:17.085Z,96634.34
2023-04-14T21:38:45.110Z,96633.91
2023-04-14T21:41:13.088Z,96630.81
2023-04-14T21:43:40.588Z,96631.03
2023-04-14T21:46:08.206Z,96630.41
2023-04-14T21:48:36.291Z,96631.59
2023-04-14T21:51:03.975Z,96630.16
2023-04-14T21:53:32.038Z,96634.22
2023-04-14T21:56:09.718Z,96629.28
2023-04-14T21:58:39.340Z,96632.97
2023-04-14T22:01:07.838Z,96631.31
2023-04-14T22:03:37.507Z,96632.72
2023-04-14T22:06:05.725Z,96629.25
2023-04-14T22:08:34.129Z,96630.41
2023-04-14T22:11:04.736Z,96634.09
2023-04-14T22:13:32.544Z,96632.03
2023-04-14T22:16:00.609Z,96631.38
2023-04-14T22:18:30.712Z,96630.13
2023-04-14T22:20:58.625Z,96631.16
2023-04-14T22:23:26.130Z,96636.84
2023-04-14T22:25:53.723Z,96634.38
2023-04-14T22:28:21.536Z,96636.63
2023-04-14T22:30:49.098Z,96638.66
2023-04-14T22:33:16.598Z,96642.31
2023-04-14T22:35:44.191Z,96643.72
2023-04-14T22:38:12.054Z,96653.94
2023-04-14T22:40:40.743Z,96656.16
2023-04-14T22:43:08.950Z,96657.75
2023-04-14T22:45:41.889Z,96650.97
2023-04-14T22:48:10.688Z,96653.19
2023-04-14T22:50:39.159Z,96652.94
2023-04-14T22:53:06.780Z,96650.03
2023-04-14T22:55:34.331Z,96650.56
2023-04-14T22:58:02.405Z,96659.59
2023-04-14T23:00:29.922Z,96657.31
2023-04-14T23:02:59.260Z,96655.41
2023-04-14T23:05:27.138Z,96657.78
2023-04-14T23:07:54.607Z,96653.03
2023-04-14T23:10:22.138Z,96648.09
2023-04-14T23:12:49.617Z,96654.44
2023-04-14T23:15:18.701Z,96655.44
2023-04-14T23:17:46.305Z,96651.13
2023-04-14T23:20:13.855Z,96650.97
2023-04-14T23:22:41.408Z,96644.41
2023-04-14T23:25:09.360Z,96649.75
2023-04-14T23:27:36.945Z,96644.41
2023-04-14T23:30:05.420Z,96648.09
2023-04-14T23:32:33.091Z,96640.09
2023-04-14T23:35:00.747Z,96632.94
2023-04-14T23:37:28.672Z,96643.41
2023-04-14T23:39:56.298Z,96642.41
2023-04-14T23:42:23.777Z,96642.56
2023-04-14T23:44:51.434Z,96641.31
2023-04-14T23:47:19.171Z,96637.38
2023-04-14T23:49:46.764Z,96633.88
2023-04-14T23:52:14.221Z,96639.03
2023-04-14T23:54:41.786Z,96627.34
2023-04-14T23:57:09.805Z,96622.03
2023-04-14T23:59:38.135Z,96631.69
